createdAt,value
2018-10-06T00:00:52.486Z,54.87
2018-10-06T00:03:19.792Z,55.14
2018-10-06T00:05:47.119Z,55.47
2018-10-06T00:08:14.406Z,55.61
2018-10-06T00:10:41.670Z,55.45
2018-10-06T00:13:08.949Z,55.65
2018-10-06T00:15:36.293Z,55.52
2018-10-06T00:18:03.591Z,55.36
2018-10-06T00:20:30.910Z,55.61
2018-10-06T00:22:58.214Z,54.95
2018-10-06T00:25:25.567Z,55.49
2018-10-06T00:27:52.836Z,55.52
2018-10-06T00:30:20.114Z,54.70
2018-10-06T00:32:47.459Z,55.44
2018-10-06T00:35:14.721Z,54.98
2018-10-06T00:37:42.037Z,55.13
2018-10-06T00:40:09.284Z,55.02
2018-10-06T00:42:36.528Z,55.14
2018-10-06T00:45:04.247Z,54.74
2018-10-06T00:47:31.594Z,55.07
2018-10-06T00:49:58.883Z,54.93
2018-10-06T00:52:26.275Z,54.39
2018-10-06T00:54:53.637Z,55.26
2018-10-06T00:57:20.980Z,54.35
2018-10-06T00:59:48.255Z,55.51
2018-10-06T01:02:15.624Z,55.71
2018-10-06T01:04:42.881Z,54.80
2018-10-06T01:07:10.176Z,55.09
2018-10-06T01:09:37.423Z,55.54
2018-10-06T01:12:04.699Z,55.48
2018-10-06T01:14:31.990Z,55.57
2018-10-06T01:16:59.292Z,55.60
2018-10-06T01:19:26.549Z,55.30
2018-10-06T01:21:53.877Z,55.10
2018-10-06T01:24:21.175Z,55.14
2018-10-06T01:26:48.474Z,55.45
2018-10-06T01:29:15.727Z,55.82
2018-10-06T01:31:43.038Z,55.94
2018-10-06T01:34:10.398Z,56.52
2018-10-06T01:36:37.695Z,56.43
2018-10-06T01:39:05.967Z,55.94
2018-10-06T01:41:33.280Z,55.44
2018-10-06T01:44:00.562Z,55.60
2018-10-06T01:46:27.787Z,55.88
2018-10-06T01:48:55.114Z,55.68
2018-10-06T01:51:22.441Z,55.74
2018-10-06T01:53:49.799Z,56.24
2018-10-06T01:56:17.135Z,55.51
2018-10-06T01:58:44.407Z,55.70
2018-10-06T02:01:11.679Z,55.51
2018-10-06T02:03:38.990Z,55.06
2018-10-06T02:06:06.307Z,55.26
2018-10-06T02:08:33.592Z,54.98
2018-10-06T02:11:00.875Z,55.38
2018-10-06T02:13:28.197Z,55.42
2018-10-06T02:15:55.503Z,55.16
2018-10-06T02:18:22.811Z,54.95
2018-10-06T02:20:50.137Z,54.90
2018-10-06T02:23:17.545Z,55.77
2018-10-06T02:25:44.820Z,56.00
2018-10-06T02:28:12.125Z,55.32
2018-10-06T02:30:39.499Z,54.80
2018-10-06T02:33:07.075Z,55.27
2018-10-06T02:35:34.374Z,55.43
2018-10-06T02:38:01.672Z,55.11
2018-10-06T02:40:28.916Z,54.49
2018-10-06T02:42:56.206Z,55.26
2018-10-06T02:45:23.498Z,55.33
2018-10-06T02:47:50.768Z,55.11
2018-10-06T02:50:18.062Z,55.57
2018-10-06T02:52:45.353Z,55.32
2018-10-06T02:55:12.624Z,55.62
2018-10-06T02:57:39.899Z,54.66
2018-10-06T03:00:07.220Z,55.18
2018-10-06T03:02:34.462Z,54.48
2018-10-06T03:05:01.778Z,54.83
2018-10-06T03:07:29.066Z,56.16
2018-10-06T03:09:56.354Z,58.20
2018-10-06T03:12:23.653Z,57.62
2018-10-06T03:14:50.960Z,56.02
2018-10-06T03:17:18.251Z,55.84
2018-10-06T03:19:45.535Z,55.63
2018-10-06T03:22:12.997Z,54.30
2018-10-06T03:24:40.248Z,55.00
2018-10-06T03:27:07.595Z,55.22
2018-10-06T03:29:34.914Z,55.67
2018-10-06T03:32:02.429Z,54.74
2018-10-06T03:34:29.708Z,55.59
2018-10-06T03:36:56.987Z,54.72
2018-10-06T03:39:24.293Z,54.75
2018-10-06T03:41:51.579Z,54.97
2018-10-06T03:44:18.894Z,54.83
2018-10-06T03:46:46.379Z,54.89
2018-10-06T03:49:13.733Z,55.41
2018-10-06T03:51:41.037Z,55.23
2018-10-06T03:54:10.562Z,54.37
2018-10-06T03:56:38.423Z,55.01
2018-10-06T03:59:05.796Z,54.95
2018-10-06T04:01:33.119Z,54.44
2018-10-06T04:04:00.393Z,55.08
2018-10-06T04:06:27.667Z,55.55
2018-10-06T04:08:54.974Z,54.64
2018-10-06T04:11:22.257Z,55.06
2018-10-06T04:13:49.586Z,54.74
2018-10-06T04:16:17.032Z,54.44
2018-10-06T04:18:44.367Z,55.04
2018-10-06T04:21:11.693Z,54.78
2018-10-06T04:23:38.955Z,55.01
2018-10-06T04:26:06.456Z,55.19
2018-10-06T04:28:33.852Z,55.74
2018-10-06T04:31:01.163Z,55.09
2018-10-06T04:33:28.494Z,55.77
2018-10-06T04:35:55.802Z,55.65
2018-10-06T04:38:23.051Z,55.99
2018-10-06T04:40:50.475Z,55.01
2018-10-06T04:43:17.848Z,55.60
2018-10-06T04:45:45.172Z,55.10
2018-10-06T04:48:12.462Z,56.03
2018-10-06T04:50:39.702Z,55.99
2018-10-06T04:53:07.150Z,56.27
2018-10-06T04:55:34.460Z,56.03
2018-10-06T04:58:01.925Z,55.57
2018-10-06T05:00:29.349Z,55.62
2018-10-06T05:02:56.766Z,54.83
2018-10-06T05:05:24.172Z,55.23
2018-10-06T05:07:51.463Z,55.02
2018-10-06T05:10:18.789Z,55.48
2018-10-06T05:12:46.145Z,55.81
2018-10-06T05:15:13.395Z,55.52
2018-10-06T05:17:40.746Z,54.63
2018-10-06T05:20:08.059Z,54.69
2018-10-06T05:22:35.392Z,55.42
2018-10-06T05:25:02.766Z,55.55
2018-10-06T05:27:30.102Z,54.92
2018-10-06T05:29:57.489Z,55.38
2018-10-06T05:32:33.116Z,54.90
2018-10-06T05:35:00.695Z,54.99
2018-10-06T05:37:27.988Z,55.11
2018-10-06T05:39:55.410Z,55.40
2018-10-06T05:42:22.759Z,55.37
2018-10-06T05:44:49.995Z,55.30
2018-10-06T05:47:17.336Z,55.48
2018-10-06T05:49:44.654Z,56.07
2018-10-06T05:52:12.064Z,56.26
2018-10-06T05:54:46.197Z,55.43
2018-10-06T05:57:13.614Z,56.46
2018-10-06T05:59:40.880Z,56.75
2018-10-06T06:02:08.238Z,56.01
2018-10-06T06:04:35.484Z,56.37
2018-10-06T06:07:02.846Z,56.13
2018-10-06T06:09:30.181Z,55.83
2018-10-06T06:11:57.527Z,56.18
2018-10-06T06:14:24.849Z,56.31
2018-10-06T06:16:52.177Z,56.80
2018-10-06T06:19:19.434Z,56.05
2018-10-06T06:21:46.743Z,56.72
2018-10-06T06:24:14.020Z,56.96
2018-10-06T06:26:41.286Z,56.94
2018-10-06T06:29:08.611Z,56.75
2018-10-06T06:31:35.924Z,57.71
2018-10-06T06:34:03.235Z,57.37
2018-10-06T06:36:30.637Z,56.59
2018-10-06T06:38:57.993Z,56.46
2018-10-06T06:41:25.300Z,56.63
2018-10-06T06:43:52.717Z,56.64
2018-10-06T06:46:19.976Z,56.81
2018-10-06T06:48:47.315Z,56.87
2018-10-06T06:51:14.603Z,56.63
2018-10-06T06:53:41.999Z,56.22
2018-10-06T06:56:09.282Z,56.34
2018-10-06T06:58:36.711Z,56.00
2018-10-06T07:01:03.960Z,56.37
2018-10-06T07:03:31.318Z,56.53
2018-10-06T07:05:58.595Z,57.54
2018-10-06T07:08:25.951Z,57.02
2018-10-06T07:10:53.233Z,57.02
2018-10-06T07:13:20.556Z,57.24
2018-10-06T07:15:50.273Z,57.64
2018-10-06T07:18:17.632Z,57.84
2018-10-06T07:20:44.973Z,58.15
2018-10-06T07:23:12.278Z,56.91
2018-10-06T07:25:39.659Z,57.30
2018-10-06T07:28:06.934Z,57.59
2018-10-06T07:30:34.302Z,57.35
2018-10-06T07:33:01.678Z,56.36
2018-10-06T07:35:28.994Z,56.61
2018-10-06T07:37:56.280Z,56.75
2018-10-06T07:40:23.575Z,56.06
2018-10-06T07:42:50.887Z,55.64
2018-10-06T07:45:18.327Z,56.18
2018-10-06T07:47:45.624Z,56.67
2018-10-06T07:50:12.973Z,55.50
2018-10-06T07:52:40.264Z,55.45
2018-10-06T07:55:07.561Z,56.61
2018-10-06T07:57:34.841Z,56.60
2018-10-06T08:00:02.192Z,56.41
2018-10-06T08:02:29.482Z,55.84
2018-10-06T08:04:56.725Z,55.63
2018-10-06T08:07:24.058Z,55.03
2018-10-06T08:09:51.444Z,55.82
2018-10-06T08:12:18.903Z,54.81
2018-10-06T08:14:46.288Z,54.70
2018-10-06T08:17:13.573Z,54.20
2018-10-06T08:19:40.837Z,54.66
2018-10-06T08:22:08.175Z,53.29
2018-10-06T08:24:35.491Z,54.20
2018-10-06T08:27:02.785Z,53.87
2018-10-06T08:29:30.103Z,53.67
2018-10-06T08:31:57.444Z,53.53
2018-10-06T08:34:24.803Z,52.64
2018-10-06T08:36:52.062Z,53.08
2018-10-06T08:39:19.350Z,52.72
2018-10-06T08:41:46.648Z,53.02
2018-10-06T08:44:13.916Z,52.92
2018-10-06T08:46:41.194Z,51.57
2018-10-06T08:49:08.456Z,52.35
2018-10-06T08:51:35.742Z,51.71
2018-10-06T08:54:03.201Z,51.43
2018-10-06T08:56:30.685Z,51.95
2018-10-06T08:58:58.047Z,50.79
2018-10-06T09:01:25.318Z,51.08
2018-10-06T09:03:52.795Z,50.39
2018-10-06T09:06:20.145Z,51.32
2018-10-06T09:08:47.478Z,50.63
2018-10-06T09:11:14.852Z,49.70
2018-10-06T09:13:42.151Z,49.21
2018-10-06T09:16:09.491Z,50.36
2018-10-06T09:18:36.859Z,49.39
2018-10-06T09:21:04.204Z,49.09
2018-10-06T09:23:31.512Z,49.60
2018-10-06T09:25:58.799Z,49.58
2018-10-06T09:28:26.185Z,48.15
2018-10-06T09:30:53.551Z,48.82
2018-10-06T09:33:20.877Z,48.53
2018-10-06T09:35:48.184Z,48.08
2018-10-06T09:38:15.544Z,47.81
2018-10-06T09:40:42.949Z,47.61
2018-10-06T09:43:10.303Z,47.46
2018-10-06T09:45:37.601Z,48.14
2018-10-06T09:48:10.957Z,47.41
2018-10-06T09:50:38.164Z,47.70
2018-10-06T09:53:05.425Z,46.04
2018-10-06T09:55:32.716Z,45.81
2018-10-06T09:58:00.023Z,45.99
2018-10-06T10:00:32.965Z,45.74
2018-10-06T10:03:06.098Z,44.42
2018-10-06T10:05:39.042Z,45.38
2018-10-06T10:08:06.702Z,44.81
2018-10-06T10:10:33.962Z,44.38
2018-10-06T10:13:01.345Z,44.47
2018-10-06T10:15:28.658Z,44.58
2018-10-06T10:17:55.904Z,43.59
2018-10-06T10:20:23.164Z,43.33
2018-10-06T10:25:23.508Z,42.44
2018-10-06T10:27:50.832Z,43.03
2018-10-06T10:30:18.082Z,43.11
2018-10-06T10:32:45.383Z,42.11
2018-10-06T10:35:12.707Z,42.61
2018-10-06T10:37:40.435Z,42.30
2018-10-06T10:40:07.880Z,41.18
2018-10-06T10:42:35.159Z,41.71
2018-10-06T10:45:02.465Z,41.34
2018-10-06T10:47:29.781Z,41.06
2018-10-06T10:49:57.083Z,40.72
2018-10-06T10:52:24.392Z,40.01
2018-10-06T10:54:51.720Z,40.90
2018-10-06T10:57:18.993Z,40.17
2018-10-06T10:59:46.451Z,38.63
2018-10-06T11:02:13.626Z,39.28
2018-10-06T11:04:40.939Z,38.50
2018-10-06T11:07:08.240Z,37.75
2018-10-06T11:09:35.526Z,38.21
2018-10-06T11:12:02.859Z,36.38
2018-10-06T11:14:30.144Z,36.54
2018-10-06T11:16:57.610Z,36.05
2018-10-06T11:19:24.878Z,36.20
2018-10-06T11:21:52.221Z,35.04
2018-10-06T11:24:19.560Z,35.26
2018-10-06T11:26:46.835Z,34.58
2018-10-06T11:29:14.168Z,34.46
2018-10-06T11:31:41.500Z,34.05
2018-10-06T11:34:08.849Z,33.74
2018-10-06T11:36:36.161Z,34.29
2018-10-06T11:39:04.528Z,34.38
2018-10-06T11:41:31.943Z,33.34
2018-10-06T11:43:59.286Z,33.23
2018-10-06T11:46:26.578Z,32.33
2018-10-06T11:48:53.891Z,33.28
2018-10-06T11:51:21.137Z,33.77
2018-10-06T11:53:48.448Z,33.45
2018-10-06T11:56:15.828Z,33.34
2018-10-06T11:58:43.125Z,32.59
2018-10-06T12:01:10.478Z,33.44
2018-10-06T12:03:37.786Z,32.85
2018-10-06T12:06:05.158Z,32.86
2018-10-06T12:08:32.462Z,32.46
2018-10-06T12:10:59.921Z,32.57
2018-10-06T12:13:27.280Z,32.50
2018-10-06T12:15:54.570Z,31.85
2018-10-06T12:18:21.869Z,32.42
2018-10-06T12:20:49.208Z,33.44
2018-10-06T12:23:16.488Z,32.35
2018-10-06T12:25:43.776Z,32.32
2018-10-06T12:28:11.013Z,32.32
2018-10-06T12:30:38.315Z,33.02
2018-10-06T12:33:05.675Z,32.25
2018-10-06T12:35:33.009Z,31.91
2018-10-06T12:38:00.207Z,32.95
2018-10-06T12:40:27.496Z,32.68
2018-10-06T12:42:54.789Z,31.57
2018-10-06T12:45:22.998Z,32.30
2018-10-06T12:47:50.294Z,32.24
2018-10-06T12:50:17.604Z,32.36
2018-10-06T12:52:44.996Z,32.23
2018-10-06T12:55:12.471Z,31.42
2018-10-06T12:57:39.824Z,30.51
2018-10-06T13:00:07.192Z,32.12
2018-10-06T13:02:34.941Z,31.34
2018-10-06T13:05:02.262Z,30.83
2018-10-06T13:07:29.488Z,30.76
2018-10-06T13:09:56.763Z,30.77
2018-10-06T13:12:24.063Z,29.45
2018-10-06T13:14:51.392Z,30.61
2018-10-06T13:17:18.692Z,31.05
2018-10-06T13:19:46.183Z,30.93
2018-10-06T13:22:13.466Z,30.19
2018-10-06T13:24:40.734Z,29.79
2018-10-06T13:27:08.179Z,30.28
2018-10-06T13:29:35.660Z,29.84
2018-10-06T13:32:03.933Z,30.85
2018-10-06T13:34:31.183Z,29.77
2018-10-06T13:36:58.517Z,30.76
2018-10-06T13:39:25.796Z,30.15
2018-10-06T13:41:53.074Z,30.78
2018-10-06T13:44:20.372Z,30.58
2018-10-06T13:46:47.810Z,30.23
2018-10-06T13:49:15.143Z,29.46
2018-10-06T13:51:42.449Z,29.82
2018-10-06T13:54:09.825Z,29.41
2018-10-06T13:56:37.072Z,30.20
2018-10-06T13:59:04.422Z,30.23
2018-10-06T14:01:31.673Z,29.95
2018-10-06T14:03:59.103Z,29.18
2018-10-06T14:06:26.379Z,29.20
2018-10-06T14:08:53.739Z,29.47
2018-10-06T14:11:21.002Z,28.80
2018-10-06T14:13:48.314Z,28.45
2018-10-06T14:16:15.633Z,30.05
2018-10-06T14:18:42.995Z,30.08
2018-10-06T14:21:10.287Z,30.01
2018-10-06T14:23:37.621Z,30.19
2018-10-06T14:26:05.099Z,29.82
2018-10-06T14:28:32.383Z,30.55
2018-10-06T14:30:59.688Z,30.06
2018-10-06T14:33:27.014Z,28.79
2018-10-06T14:35:54.339Z,30.07
2018-10-06T14:38:21.678Z,30.00
2018-10-06T14:40:49.033Z,30.00
2018-10-06T14:43:16.313Z,29.19
2018-10-06T14:45:43.648Z,30.37
2018-10-06T14:48:10.930Z,31.62
2018-10-06T14:50:38.231Z,31.85
2018-10-06T14:53:05.925Z,31.83
2018-10-06T14:55:33.242Z,31.96
2018-10-06T14:58:00.570Z,32.72
2018-10-06T15:00:27.855Z,32.30
2018-10-06T15:02:55.173Z,35.27
2018-10-06T15:05:22.430Z,34.57
2018-10-06T15:07:49.759Z,36.41
2018-10-06T15:10:17.051Z,33.54
2018-10-06T15:12:47.169Z,33.99
2018-10-06T15:15:14.512Z,34.26
2018-10-06T15:17:41.851Z,33.93
2018-10-06T15:20:09.197Z,33.95
2018-10-06T15:22:36.500Z,38.08
2018-10-06T15:25:03.893Z,34.82
2018-10-06T15:27:31.190Z,36.21
2018-10-06T15:29:58.485Z,34.94
2018-10-06T15:32:25.831Z,37.70
2018-10-06T15:34:53.165Z,39.07
2018-10-06T15:37:20.893Z,40.14
2018-10-06T15:39:48.182Z,39.18
2018-10-06T15:42:15.512Z,39.76
2018-10-06T15:44:42.806Z,40.92
2018-10-06T15:47:10.152Z,41.52
2018-10-06T15:49:37.471Z,43.50
2018-10-06T15:52:04.840Z,42.55
2018-10-06T15:54:32.139Z,44.34
2018-10-06T15:56:59.412Z,44.45
2018-10-06T15:59:26.702Z,45.24
2018-10-06T16:01:53.964Z,45.07
2018-10-06T16:04:21.263Z,44.69
2018-10-06T16:06:48.517Z,44.46
2018-10-06T16:09:15.802Z,45.45
2018-10-06T16:11:43.075Z,45.92
2018-10-06T16:14:11.155Z,45.33
2018-10-06T16:16:38.416Z,46.18
2018-10-06T16:19:05.701Z,46.64
2018-10-06T16:21:33.029Z,46.35
2018-10-06T16:24:00.331Z,46.46
2018-10-06T16:26:27.600Z,47.34
2018-10-06T16:28:54.938Z,46.96
2018-10-06T16:31:22.563Z,47.60
2018-10-06T16:33:49.922Z,47.35
2018-10-06T16:36:17.248Z,48.27
2018-10-06T16:38:44.508Z,47.98
2018-10-06T16:41:11.892Z,47.49
2018-10-06T16:43:39.094Z,47.65
2018-10-06T16:46:06.396Z,48.27
2018-10-06T16:48:33.646Z,48.12
2018-10-06T16:51:00.952Z,48.06
2018-10-06T16:53:28.341Z,48.79
2018-10-06T16:55:55.737Z,49.60
2018-10-06T16:58:23.252Z,47.73
2018-10-06T17:00:50.520Z,48.43
2018-10-06T17:03:17.900Z,46.60
2018-10-06T17:05:45.321Z,47.86
2018-10-06T17:08:12.613Z,49.53
2018-10-06T17:10:39.981Z,50.27
2018-10-06T17:13:07.269Z,50.54
2018-10-06T17:15:34.615Z,50.20
2018-10-06T17:18:01.949Z,50.96
2018-10-06T17:20:29.259Z,51.72
2018-10-06T17:22:56.669Z,51.80
2018-10-06T17:25:23.997Z,50.93
2018-10-06T17:27:51.344Z,52.22
2018-10-06T17:30:18.619Z,51.66
2018-10-06T17:32:45.978Z,52.16
2018-10-06T17:35:13.351Z,52.20
2018-10-06T17:37:40.653Z,51.09
2018-10-06T17:40:08.015Z,51.84
2018-10-06T17:42:35.365Z,51.01
2018-10-06T17:45:02.702Z,51.40
2018-10-06T17:47:30.089Z,51.50
2018-10-06T17:49:57.477Z,50.79
2018-10-06T17:52:24.743Z,50.10
2018-10-06T17:54:51.986Z,50.69
2018-10-06T17:57:19.298Z,50.44
2018-10-06T17:59:46.591Z,50.08
2018-10-06T18:02:13.960Z,50.18
2018-10-06T18:04:41.334Z,49.59
2018-10-06T18:07:08.608Z,49.81
2018-10-06T18:09:35.864Z,50.32
2018-10-06T18:12:03.116Z,50.55
2018-10-06T18:14:30.556Z,49.68
2018-10-06T18:16:57.832Z,49.60
2018-10-06T18:19:25.167Z,50.07
2018-10-06T18:21:52.452Z,49.89
2018-10-06T18:24:19.760Z,50.53
2018-10-06T18:26:47.009Z,49.68
2018-10-06T18:29:14.496Z,50.31
2018-10-06T18:31:41.669Z,50.74
2018-10-06T18:34:09.062Z,50.40
2018-10-06T18:36:36.507Z,50.68
2018-10-06T18:39:04.889Z,51.61
2018-10-06T18:41:32.147Z,51.74
2018-10-06T18:43:59.439Z,51.69
2018-10-06T18:46:26.687Z,51.87
2018-10-06T18:48:53.983Z,51.52
2018-10-06T18:51:21.302Z,51.71
2018-10-06T18:53:48.632Z,51.48
2018-10-06T18:56:16.012Z,51.04
2018-10-06T18:58:50.849Z,51.48
2018-10-06T19:01:18.480Z,50.78
2018-10-06T19:03:45.872Z,49.07
2018-10-06T19:06:13.108Z,49.72
2018-10-06T19:08:40.497Z,49.48
2018-10-06T19:11:07.780Z,49.61
2018-10-06T19:13:35.045Z,50.68
2018-10-06T19:16:02.349Z,49.73
2018-10-06T19:18:29.687Z,47.88
2018-10-06T19:20:56.996Z,47.83
2018-10-06T19:23:24.420Z,50.38
2018-10-06T19:25:51.848Z,49.11
2018-10-06T19:28:19.050Z,50.38
2018-10-06T19:30:46.398Z,48.80
2018-10-06T19:33:13.697Z,49.89
2018-10-06T19:35:41.076Z,50.54
2018-10-06T19:38:08.378Z,50.31
2018-10-06T19:40:35.704Z,50.39
2018-10-06T19:43:03.007Z,51.13
2018-10-06T19:45:30.289Z,50.76
2018-10-06T19:47:57.603Z,50.98
2018-10-06T19:50:24.905Z,51.25
2018-10-06T19:52:52.173Z,52.26
2018-10-06T19:55:19.455Z,51.12
2018-10-06T19:57:46.763Z,52.35
2018-10-06T20:00:14.082Z,52.28
2018-10-06T20:02:41.404Z,52.12
2018-10-06T20:05:08.677Z,52.20
2018-10-06T20:07:35.965Z,52.22
2018-10-06T20:10:03.231Z,52.71
2018-10-06T20:12:30.557Z,51.87
2018-10-06T20:14:57.801Z,51.72
2018-10-06T20:17:25.083Z,51.95
2018-10-06T20:19:52.386Z,52.49
2018-10-06T20:22:19.667Z,52.06
2018-10-06T20:24:46.921Z,52.67
2018-10-06T20:27:14.230Z,52.90
2018-10-06T20:29:41.562Z,53.01
2018-10-06T20:32:08.934Z,52.35
2018-10-06T20:34:36.477Z,52.20
2018-10-06T20:37:03.766Z,51.80
2018-10-06T20:39:31.070Z,51.77
2018-10-06T20:41:58.595Z,50.59
2018-10-06T20:44:25.943Z,50.45
2018-10-06T20:46:53.187Z,51.09
2018-10-06T20:49:20.551Z,51.13
2018-10-06T20:51:47.794Z,52.07
2018-10-06T20:54:15.174Z,51.10
2018-10-06T20:56:42.573Z,51.37
2018-10-06T20:59:09.903Z,51.31
2018-10-06T21:01:37.302Z,50.66
2018-10-06T21:04:04.604Z,50.37
2018-10-06T21:06:31.998Z,49.84
2018-10-06T21:08:59.300Z,49.51
2018-10-06T21:11:26.686Z,49.33
2018-10-06T21:13:53.938Z,49.82
2018-10-06T21:16:21.316Z,49.47
2018-10-06T21:18:48.758Z,49.10
2018-10-06T21:21:16.044Z,50.07
2018-10-06T21:23:43.297Z,50.54
2018-10-06T21:26:10.594Z,49.64
2018-10-06T21:28:42.128Z,50.76
2018-10-06T21:31:09.531Z,51.24
2018-10-06T21:33:36.819Z,51.94
2018-10-06T21:36:04.169Z,51.79
2018-10-06T21:38:31.504Z,51.79
2018-10-06T21:40:58.853Z,53.08
2018-10-06T21:43:26.121Z,53.10
2018-10-06T21:45:53.684Z,53.52
2018-10-06T21:48:20.967Z,53.28
2018-10-06T21:50:48.328Z,53.80
2018-10-06T21:53:15.567Z,53.84
2018-10-06T21:55:43.022Z,54.10
2018-10-06T21:58:10.320Z,53.57
2018-10-06T22:00:37.597Z,53.35
2018-10-06T22:03:04.939Z,53.85
2018-10-06T22:05:32.337Z,54.02
2018-10-06T22:07:59.977Z,53.22
2018-10-06T22:10:27.628Z,53.85
2018-10-06T22:12:54.979Z,53.82
2018-10-06T22:15:22.489Z,54.16
2018-10-06T22:17:49.642Z,53.99
2018-10-06T22:20:16.920Z,54.89
2018-10-06T22:22:44.356Z,55.05
2018-10-06T22:25:11.631Z,55.14
2018-10-06T22:27:39.042Z,54.32
2018-10-06T22:30:06.897Z,54.72
2018-10-06T22:32:34.195Z,55.06
2018-10-06T22:35:01.467Z,54.83
2018-10-06T22:37:28.810Z,55.14
2018-10-06T22:39:56.213Z,54.90
2018-10-06T22:42:23.501Z,55.69
2018-10-06T22:44:50.870Z,55.45
2018-10-06T22:47:18.141Z,55.00
2018-10-06T22:49:45.441Z,54.52
2018-10-06T22:52:13.121Z,54.51
2018-10-06T22:54:40.421Z,54.50
2018-10-06T22:57:07.775Z,55.25
2018-10-06T22:59:35.109Z,54.82
2018-10-06T23:02:02.395Z,55.40
2018-10-06T23:04:29.698Z,55.36
2018-10-06T23:06:57.054Z,55.10
2018-10-06T23:09:24.366Z,54.45
2018-10-06T23:11:51.625Z,54.92
2018-10-06T23:14:18.965Z,54.95
2018-10-06T23:16:46.347Z,55.53
2018-10-06T23:19:13.659Z,55.53
2018-10-06T23:21:40.947Z,55.23
2018-10-06T23:24:08.252Z,55.40
2018-10-06T23:26:35.600Z,55.14
2018-10-06T23:29:02.929Z,55.65
2018-10-06T23:31:30.222Z,54.90
2018-10-06T23:33:57.484Z,55.76
2018-10-06T23:36:24.816Z,55.10
2018-10-06T23:38:52.071Z,55.95
2018-10-06T23:41:19.330Z,55.02
2018-10-06T23:43:46.617Z,55.10
2018-10-06T23:46:13.908Z,55.50
2018-10-06T23:48:41.228Z,56.18
2018-10-06T23:51:08.502Z,56.14
2018-10-06T23:53:35.793Z,56.63
2018-10-06T23:56:03.102Z,55.72
2018-10-06T23:58:30.309Z,55.52
